Time;durP1;ratioP1;P1;durP2;ratioP2;P2;SDS_P1;SDS_P2;PMS_P1;PMS_P2;Temp;Humidity;BMP_temperature;BMP_pressure;BME280_temperature;BME280_humidity;BME280_pressure;Samples;Min_cycle;Max_cycle;Signal;HPM_P1;HPM_P2
2021/04/14 00:00:59;;;;;;;15.45;4.25;;;23.40;51.40;;;;;;5075805;28;20108;-55
2021/04/14 00:03:30;;;;;;;16.88;4.40;;;23.40;51.50;;;;;;5075686;28;20048;-55
2021/04/14 00:05:57;;;;;;;13.70;4.88;;;23.40;51.50;;;;;;5075512;28;20378;-54
2021/04/14 00:08:23;;;;;;;13.18;4.15;;;23.30;51.50;;;;;;5075524;28;20060;-54
2021/04/14 00:10:50;;;;;;;13.80;4.28;;;23.30;51.50;;;;;;5075283;28;20098;-55
2021/04/14 00:13:19;;;;;;;11.18;3.78;;;23.30;51.70;;;;;;5075431;28;20020;-54
2021/04/14 00:15:53;;;;;;;18.20;5.32;;;23.30;51.70;;;;;;5057011;28;20082;-54
2021/04/14 00:18:20;;;;;;;19.50;5.57;;;23.30;51.70;;;;;;5057200;28;20386;-54
2021/04/14 00:20:46;;;;;;;15.65;3.97;;;23.30;51.70;;;;;;5056876;28;20063;-55
2021/04/14 00:23:14;;;;;;;17.70;3.78;;;23.30;51.70;;;;;;5075063;28;20040;-54
2021/04/14 00:25:43;;;;;;;20.13;4.88;;;23.30;51.90;;;;;;5074852;28;20020;-54
2021/04/14 00:28:14;;;;;;;12.45;4.28;;;23.20;51.90;;;;;;5074659;28;20425;-54
2021/04/14 00:30:41;;;;;;;21.00;4.85;;;23.20;51.90;;;;;;5074479;28;20066;-54
2021/04/14 00:33:07;;;;;;;14.13;4.10;;;23.20;51.90;;;;;;5074800;28;20045;-54
2021/04/14 00:35:33;;;;;;;14.65;3.83;;;23.20;52.00;;;;;;5075027;28;20036;-54
2021/04/14 00:38:00;;;;;;;14.68;3.63;;;23.20;52.00;;;;;;5074624;28;20103;-54
2021/04/14 00:40:31;;;;;;;13.02;3.80;;;23.20;52.60;;;;;;5074801;28;20020;-54
2021/04/14 00:42:58;;;;;;;13.52;4.80;;;23.20;52.10;;;;;;5074516;28;20029;-54
2021/04/14 00:45:25;;;;;;;14.27;3.80;;;23.20;52.10;;;;;;5074575;28;20078;-54
2021/04/14 00:47:52;;;;;;;17.67;4.70;;;23.20;52.20;;;;;;5074643;28;20421;-54
2021/04/14 00:50:25;;;;;;;10.10;3.33;;;23.20;52.20;;;;;;5074571;28;20482;-54
2021/04/14 00:52:52;;;;;;;16.92;4.95;;;23.10;52.30;;;;;;5056858;28;20385;-54
2021/04/14 00:55:23;;;;;;;13.82;4.50;;;23.10;52.30;;;;;;5074463;28;20096;-54
2021/04/14 00:57:49;;;;;;;15.27;4.30;;;23.10;52.40;;;;;;5075090;28;20024;-54
2021/04/14 01:00:34;;;;;;;14.18;4.63;;;23.10;52.40;;;;;;5075082;28;20315;-54
2021/04/14 01:03:01;;;;;;;17.35;4.95;;;23.10;52.50;;;;;;5074880;28;20051;-55
2021/04/14 01:05:31;;;;;;;14.20;3.75;;;23.10;52.40;;;;;;5074203;28;20077;-54
2021/04/14 01:07:58;;;;;;;13.98;4.90;;;23.10;52.50;;;;;;5074319;28;20538;-54
2021/04/14 01:10:24;;;;;;;18.80;5.05;;;23.10;52.40;;;;;;5074097;28;20028;-54
2021/04/14 01:12:52;;;;;;;13.85;4.07;;;23.10;52.40;;;;;;5074233;28;20115;-53
2021/04/14 01:15:22;;;;;;;15.45;4.43;;;23.10;52.50;;;;;;5074167;28;20035;-54
2021/04/14 01:17:48;;;;;;;18.00;4.50;;;23.10;52.50;;;;;;5073560;28;20466;-54
2021/04/14 01:20:16;;;;;;;12.52;4.20;;;23.10;53.10;;;;;;5054091;28;20031;-55
2021/04/14 01:22:42;;;;;;;13.73;4.93;;;23.10;52.50;;;;;;5073840;28;20489;-55
2021/04/14 01:25:11;;;;;;;17.02;4.43;;;23.10;52.50;;;;;;5074107;28;20020;-54
2021/04/14 01:27:37;;;;;;;15.75;4.47;;;23.10;52.60;;;;;;5078451;28;20032;-54
2021/04/14 01:30:25;;;;;;;14.07;4.30;;;23.10;52.60;;;;;;5093932;28;20434;-54
2021/04/14 01:32:52;;;;;;;14.98;4.32;;;23.10;52.60;;;;;;5094068;28;20127;-54
2021/04/14 01:35:22;;;;;;;21.88;5.55;;;23.10;52.60;;;;;;5075926;28;20055;-54
2021/04/14 01:37:49;;;;;;;14.05;4.43;;;23.10;52.70;;;;;;5093836;28;20433;-54
2021/04/14 01:40:18;;;;;;;12.23;4.00;;;23.10;52.70;;;;;;5094183;28;20060;-55
2021/04/14 01:42:44;;;;;;;13.43;3.83;;;23.00;52.60;;;;;;5093983;28;20756;-54
2021/04/14 01:45:13;;;;;;;10.07;3.50;;;23.10;52.70;;;;;;5093854;28;20055;-54
2021/04/14 01:47:39;;;;;;;9.73;3.53;;;23.00;52.60;;;;;;5093806;28;20035;-55
2021/04/14 01:50:07;;;;;;;14.55;4.60;;;23.10;52.70;;;;;;5093798;28;20044;-55
2021/04/14 01:52:33;;;;;;;16.63;3.47;;;23.10;52.70;;;;;;5075753;28;20028;-55
2021/04/14 01:55:00;;;;;;;10.50;4.07;;;23.10;52.70;;;;;;5093538;28;20031;-54
2021/04/14 01:57:26;;;;;;;15.45;5.32;;;23.10;52.70;;;;;;5090107;28;20021;-55
2021/04/14 01:59:52;;;;;;;10.35;3.92;;;23.10;52.70;;;;;;5086013;28;20487;-55
2021/04/14 02:02:18;;;;;;;17.05;4.47;;;23.10;52.70;;;;;;5093979;28;20024;-55
2021/04/14 02:04:45;;;;;;;15.43;4.43;;;23.10;52.70;;;;;;5092987;28;20035;-55
2021/04/14 02:07:11;;;;;;;11.82;4.03;;;23.10;52.80;;;;;;5093460;28;20032;-55
2021/04/14 02:09:37;;;;;;;16.80;4.70;;;23.10;52.80;;;;;;5093406;28;20382;-55
2021/04/14 02:12:07;;;;;;;11.27;3.58;;;23.10;52.80;;;;;;5093785;28;20478;-55
2021/04/14 02:14:33;;;;;;;12.47;4.50;;;23.10;52.80;;;;;;5093657;28;20028;-55
2021/04/14 02:16:59;;;;;;;12.25;4.00;;;23.10;52.80;;;;;;5093615;28;20074;-55
2021/04/14 02:19:26;;;;;;;14.65;4.22;;;23.10;52.70;;;;;;5093495;28;20027;-55
2021/04/14 02:21:53;;;;;;;13.55;4.13;;;23.10;52.70;;;;;;5093283;28;20110;-55
2021/04/14 02:24:19;;;;;;;9.70;3.63;;;23.10;52.70;;;;;;5075609;28;20378;-55
2021/04/14 02:26:45;;;;;;;10.75;3.33;;;23.10;52.70;;;;;;5093530;28;20036;-55
2021/04/14 02:29:11;;;;;;;12.05;4.40;;;23.10;52.70;;;;;;5092477;28;20035;-55
2021/04/14 02:31:37;;;;;;;10.70;4.07;;;23.10;52.70;;;;;;5093044;28;20093;-54
2021/04/14 02:34:10;;;;;;;15.00;4.13;;;23.10;52.70;;;;;;5075361;28;20326;-55
2021/04/14 02:36:36;;;;;;;16.17;5.57;;;23.10;52.70;;;;;;5093300;28;20027;-55
2021/04/14 02:39:03;;;;;;;12.82;4.07;;;23.10;52.70;;;;;;5093422;28;20034;-55
2021/04/14 02:41:29;;;;;;;10.30;4.07;;;23.10;52.70;;;;;;5092982;28;20069;-55
2021/04/14 02:43:56;;;;;;;17.65;4.85;;;23.10;52.70;;;;;;5093103;28;20028;-55
2021/04/14 02:46:22;;;;;;;13.25;4.05;;;23.10;52.70;;;;;;5092411;28;20024;-54
2021/04/14 02:48:49;;;;;;;8.48;4.18;;;23.10;52.70;;;;;;5091373;28;20035;-54
2021/04/14 02:51:15;;;;;;;13.85;4.85;;;23.10;52.70;;;;;;5093081;28;20027;-55
2021/04/14 02:53:41;;;;;;;13.68;3.65;;;23.10;52.80;;;;;;5093108;28;20043;-55
2021/04/14 02:56:07;;;;;;;14.00;4.10;;;23.10;52.80;;;;;;5093351;28;20040;-54
2021/04/14 02:58:34;;;;;;;10.90;4.40;;;23.10;52.80;;;;;;5092913;28;20017;-55
2021/04/14 03:01:00;;;;;;;16.48;5.13;;;23.10;52.90;;;;;;5092976;28;20464;-54
2021/04/14 03:03:27;;;;;;;12.95;4.28;;;23.10;52.90;;;;;;5092911;28;20031;-55
2021/04/14 03:05:54;;;;;;;12.75;4.95;;;23.10;52.90;;;;;;5075073;28;20066;-55
2021/04/14 03:08:20;;;;;;;12.65;3.55;;;23.10;52.90;;;;;;5092735;28;20040;-55
2021/04/14 03:10:47;;;;;;;13.20;3.83;;;23.10;53.00;;;;;;5092990;28;20103;-55
2021/04/14 03:13:15;;;;;;;12.93;4.22;;;23.10;53.00;;;;;;5092773;28;20032;-55
2021/04/14 03:15:41;;;;;;;18.08;3.75;;;23.10;53.00;;;;;;5092820;28;20462;-55
2021/04/14 03:18:09;;;;;;;11.27;4.07;;;23.10;53.10;;;;;;5074596;28;20028;-55
2021/04/14 03:20:35;;;;;;;12.60;3.42;;;23.10;53.70;;;;;;5092736;28;20032;-55
2021/04/14 03:23:01;;;;;;;8.80;3.80;;;23.10;53.10;;;;;;5093140;28;20036;-55
2021/04/14 03:25:31;;;;;;;12.68;3.85;;;23.10;53.10;;;;;;5074521;28;20032;-55
2021/04/14 03:28:01;;;;;;;12.50;3.50;;;23.10;53.10;;;;;;5079143;28;20394;-55
2021/04/14 03:30:27;;;;;;;14.30;4.28;;;23.10;53.10;;;;;;5076013;28;20036;-55
2021/04/14 03:32:53;;;;;;;9.45;3.92;;;23.10;53.20;;;;;;5074455;28;20055;-54
2021/04/14 03:35:22;;;;;;;12.90;3.40;;;23.10;53.20;;;;;;5092640;28;20137;-55
2021/04/14 03:37:48;;;;;;;12.18;3.85;;;23.10;53.20;;;;;;5092864;28;20154;-55
2021/04/14 03:40:15;;;;;;;13.63;3.80;;;23.10;53.20;;;;;;5092295;28;20478;-54
2021/04/14 03:42:41;;;;;;;13.80;3.63;;;23.00;53.20;;;;;;5095087;28;20028;-55
2021/04/14 03:45:16;;;;;;;12.27;3.80;;;23.00;53.20;;;;;;5096132;28;20032;-55
2021/04/14 03:47:43;;;;;;;12.25;3.35;;;23.00;53.30;;;;;;5096368;28;20085;-55
2021/04/14 03:50:13;;;;;;;13.48;4.57;;;23.10;53.30;;;;;;5095707;28;20028;-55
2021/04/14 03:52:39;;;;;;;13.00;3.75;;;23.00;53.30;;;;;;5096555;28;20036;-55
2021/04/14 03:55:08;;;;;;;22.52;4.45;;;23.00;53.30;;;;;;5096007;28;20405;-55
2021/04/14 03:57:34;;;;;;;11.00;3.83;;;23.00;53.40;;;;;;5096098;28;20466;-55
2021/04/14 04:00:00;;;;;;;11.48;3.45;;;23.00;53.40;;;;;;5095959;28;20020;-55
2021/04/14 04:02:26;;;;;;;11.20;3.88;;;23.00;53.50;;;;;;5077805;28;20035;-54
2021/04/14 04:04:52;;;;;;;11.35;4.03;;;23.00;53.50;;;;;;5095649;28;20024;-55
2021/04/14 04:07:18;;;;;;;10.68;3.63;;;22.90;53.50;;;;;;5095921;28;20125;-55
2021/04/14 04:09:44;;;;;;;13.77;3.20;;;22.90;53.50;;;;;;5095599;28;20537;-55
2021/04/14 04:12:11;;;;;;;14.95;4.20;;;23.00;53.60;;;;;;5096105;28;20081;-55
2021/04/14 04:14:46;;;;;;;13.18;4.68;;;22.90;53.60;;;;;;5095613;28;20680;-55
2021/04/14 04:17:17;;;;;;;16.52;4.22;;;22.90;53.60;;;;;;5095482;28;20024;-55
2021/04/14 04:19:44;;;;;;;13.10;2.90;;;22.90;53.70;;;;;;5095431;28;20105;-55
2021/04/14 04:22:11;;;;;;;8.90;3.78;;;22.90;53.70;;;;;;5095458;28;20111;-55
2021/04/14 04:24:37;;;;;;;12.27;3.92;;;22.90;54.30;;;;;;5095498;28;20386;-55
2021/04/14 04:27:04;;;;;;;14.25;4.25;;;22.90;53.70;;;;;;5095356;28;20097;-55
2021/04/14 04:29:30;;;;;;;11.07;3.78;;;22.90;53.80;;;;;;5095384;28;20386;-55
2021/04/14 04:31:56;;;;;;;15.25;3.85;;;22.90;53.80;;;;;;5095182;28;20055;-55
2021/04/14 04:34:22;;;;;;;14.63;3.63;;;22.90;53.90;;;;;;5095037;28;20039;-55
2021/04/14 04:36:50;;;;;;;10.93;4.03;;;22.90;53.90;;;;;;5093071;28;20394;-56
2021/04/14 04:39:16;;;;;;;11.45;3.65;;;22.90;54.00;;;;;;5094637;28;20062;-55
2021/04/14 04:41:43;;;;;;;17.60;4.47;;;22.90;54.00;;;;;;5097361;28;20227;-55
2021/04/14 04:44:09;;;;;;;14.55;4.25;;;22.90;54.00;;;;;;5094957;28;20038;-54
2021/04/14 04:46:35;;;;;;;12.18;3.38;;;22.90;54.00;;;;;;5085140;28;20086;-55
2021/04/14 04:49:01;;;;;;;14.65;3.60;;;22.90;54.00;;;;;;5090234;28;20044;-55
2021/04/14 04:51:27;;;;;;;12.57;3.92;;;22.90;54.00;;;;;;5094881;28;20017;-55
2021/04/14 04:53:55;;;;;;;12.30;4.10;;;22.80;53.90;;;;;;5094592;28;20051;-55
2021/04/14 04:56:21;;;;;;;20.85;5.30;;;22.90;54.10;;;;;;5094947;28;20413;-55
2021/04/14 04:58:47;;;;;;;19.63;4.55;;;22.80;54.00;;;;;;5094894;28;20047;-55
2021/04/14 05:01:13;;;;;;;9.27;3.47;;;22.80;54.10;;;;;;5076349;28;20042;-55
2021/04/14 05:03:39;;;;;;;10.02;3.33;;;22.80;54.10;;;;;;5076443;28;20474;-55
2021/04/14 05:06:06;;;;;;;11.25;2.95;;;22.80;54.10;;;;;;5094712;28;20035;-55
2021/04/14 05:08:31;;;;;;;14.10;3.15;;;22.80;54.20;;;;;;5094680;28;20031;-55
2021/04/14 05:10:58;;;;;;;18.60;4.30;;;22.80;54.20;;;;;;5095009;28;20047;-55
2021/04/14 05:13:24;;;;;;;13.80;4.28;;;22.80;54.30;;;;;;5094424;28;20485;-55
2021/04/14 05:15:50;;;;;;;12.65;3.75;;;22.80;54.30;;;;;;5076126;28;20466;-55
2021/04/14 05:18:17;;;;;;;13.32;3.58;;;22.80;54.30;;;;;;5093446;28;20028;-55
2021/04/14 05:20:44;;;;;;;12.60;3.08;;;22.80;54.40;;;;;;5094223;28;20028;-55
2021/04/14 05:23:10;;;;;;;13.82;3.60;;;22.80;54.40;;;;;;5094185;28;20051;-55
2021/04/14 05:25:40;;;;;;;11.32;4.22;;;22.80;54.40;;;;;;5093796;28;20165;-55
2021/04/14 05:28:10;;;;;;;11.73;3.63;;;22.80;54.50;;;;;;5094216;28;20062;-55
2021/04/14 05:30:37;;;;;;;14.18;4.50;;;22.80;54.50;;;;;;5089610;28;20067;-55
2021/04/14 05:33:06;;;;;;;11.60;3.47;;;22.80;54.50;;;;;;5074024;28;20068;-55
2021/04/14 05:35:33;;;;;;;19.57;4.63;;;22.80;54.60;;;;;;5076346;28;20050;-56
2021/04/14 05:37:59;;;;;;;13.07;4.13;;;22.70;54.50;;;;;;5091831;28;20351;-55
2021/04/14 05:40:25;;;;;;;16.52;3.50;;;22.80;54.70;;;;;;5094087;28;20024;-55
2021/04/14 05:42:52;;;;;;;12.40;3.75;;;22.70;54.70;;;;;;5093433;28;20028;-56
2021/04/14 05:45:30;;;;;;;11.90;4.35;;;22.70;55.30;;;;;;5088190;28;20117;-56
2021/04/14 05:47:56;;;;;;;11.93;3.55;;;22.70;54.80;;;;;;5084870;28;20024;-56
2021/04/14 05:50:25;;;;;;;11.32;3.88;;;22.70;54.80;;;;;;5097484;28;20031;-56
2021/04/14 05:52:51;;;;;;;16.15;3.70;;;22.70;54.80;;;;;;5092803;28;20059;-56
2021/04/14 05:55:18;;;;;;;18.25;4.68;;;22.70;54.80;;;;;;5093250;28;20020;-56
2021/04/14 05:57:44;;;;;;;12.13;4.18;;;22.70;54.80;;;;;;5093220;28;20059;-56
2021/04/14 06:00:13;;;;;;;12.75;3.60;;;22.70;54.80;;;;;;5092795;28;20423;-56
2021/04/14 06:02:42;;;;;;;13.23;3.55;;;22.70;54.80;;;;;;5092931;28;20032;-56
2021/04/14 06:05:12;;;;;;;15.07;4.45;;;22.70;54.80;;;;;;5077872;28;20078;-55
2021/04/14 06:07:38;;;;;;;8.07;3.22;;;22.70;54.80;;;;;;5086700;28;20028;-55
2021/04/14 06:10:07;;;;;;;15.00;4.32;;;22.70;54.80;;;;;;5074730;28;20027;-55
2021/04/14 06:12:33;;;;;;;12.18;3.20;;;22.70;54.80;;;;;;5092545;28;20031;-55
2021/04/14 06:14:59;;;;;;;10.95;3.92;;;22.70;54.80;;;;;;5093009;28;20031;-55
2021/04/14 06:17:25;;;;;;;14.10;3.83;;;22.70;54.80;;;;;;5092711;28;20020;-54
2021/04/14 06:19:52;;;;;;;15.68;4.32;;;22.80;54.90;;;;;;5074921;28;20039;-54
2021/04/14 06:22:18;;;;;;;10.15;3.90;;;22.70;54.80;;;;;;5091936;28;20030;-54
2021/04/14 06:24:44;;;;;;;12.48;4.93;;;22.70;54.80;;;;;;5090850;28;20067;-54
2021/04/14 06:27:16;;;;;;;14.25;4.95;;;22.70;54.80;;;;;;5055296;28;20032;-54
2021/04/14 06:29:42;;;;;;;15.85;4.13;;;22.70;54.80;;;;;;5092832;28;20060;-55
2021/04/14 06:32:08;;;;;;;13.85;4.13;;;22.70;54.70;;;;;;5081096;28;20067;-55
2021/04/14 06:34:34;;;;;;;12.05;3.38;;;22.80;54.70;;;;;;5093534;28;20075;-54
2021/04/14 06:37:00;;;;;;;13.27;4.07;;;22.80;54.70;;;;;;5112861;28;20035;-55
2021/04/14 06:39:34;;;;;;;10.38;5.05;;;22.80;54.60;;;;;;5094966;28;20032;-55
2021/04/14 06:42:10;;;;;;;13.80;4.22;;;22.80;54.60;;;;;;5092471;28;20492;-54
2021/04/14 06:44:59;;;;;;;10.68;4.13;;;22.80;54.70;;;;;;5093607;28;20035;-55
2021/04/14 06:47:38;;;;;;;14.82;4.43;;;22.80;54.60;;;;;;5092453;28;20032;-54
2021/04/14 06:50:19;;;;;;;13.93;4.60;;;22.80;54.60;;;;;;5096151;28;20085;-55
2021/04/14 06:53:09;;;;;;;16.27;5.05;;;22.80;54.70;;;;;;5075623;28;20039;-55
2021/04/14 06:55:44;;;;;;;14.23;5.15;;;22.80;54.80;;;;;;5081643;28;20094;-55
2021/04/14 06:58:21;;;;;;;19.42;5.38;;;22.80;54.80;;;;;;5097571;28;20059;-54
2021/04/14 07:00:55;;;;;;;14.57;3.85;;;22.80;54.80;;;;;;5076629;28;20028;-55
2021/04/14 07:03:28;;;;;;;11.93;4.20;;;22.80;54.70;;;;;;5092478;28;20068;-55
2021/04/14 07:05:58;;;;;;;10.80;4.00;;;22.80;54.70;;;;;;5096079;28;20934;-55
2021/04/14 07:08:27;;;;;;;17.08;4.25;;;22.80;54.60;;;;;;5112753;28;20054;-55
2021/04/14 07:11:00;;;;;;;19.35;5.20;;;22.80;54.50;;;;;;5092697;28;20538;-55
2021/04/14 07:13:29;;;;;;;11.38;3.60;;;22.80;54.50;;;;;;5095529;28;20132;-56
2021/04/14 07:16:28;;;;;;;13.75;4.40;;;22.80;54.50;;;;;;5077256;28;20692;-55
2021/04/14 07:19:08;;;;;;;11.88;3.53;;;22.80;54.60;;;;;;5091008;28;20035;-55
2021/04/14 07:22:00;;;;;;;15.27;3.45;;;22.80;54.60;;;;;;5111419;28;20073;-55
2021/04/14 07:24:41;;;;;;;13.95;3.90;;;22.90;54.70;;;;;;5068429;28;20024;-55
2021/04/14 07:27:24;;;;;;;10.57;3.97;;;22.80;54.60;;;;;;5097768;28;20742;-55
2021/04/14 07:29:59;;;;;;;15.55;4.53;;;22.80;54.60;;;;;;5082288;28;20020;-56
2021/04/14 07:32:33;;;;;;;13.25;4.28;;;22.80;54.50;;;;;;5096432;28;20040;-56
2021/04/14 07:34:59;;;;;;;12.38;4.15;;;22.80;54.50;;;;;;5096070;28;20028;-56
2021/04/14 07:37:42;;;;;;;15.57;4.18;;;22.80;54.50;;;;;;5096161;28;20111;-55
2021/04/14 07:40:36;;;;;;;12.45;4.00;;;22.80;54.50;;;;;;5101374;28;20023;-55
2021/04/14 07:43:40;;;;;;;22.52;9.88;;;22.80;54.50;;;;;;5100329;28;20024;-55
2021/04/14 07:46:09;;;;;;;64.47;50.97;;;22.80;54.50;;;;;;5094772;28;20052;-57
2021/04/14 07:48:39;;;;;;;20.80;10.03;;;22.80;54.40;;;;;;5095226;28;20032;-56
2021/04/14 07:51:10;;;;;;;16.10;5.40;;;22.80;54.40;;;;;;5095732;28;20036;-56
2021/04/14 07:53:42;;;;;;;14.18;4.28;;;22.80;54.30;;;;;;5094804;28;20059;-55
2021/04/14 07:56:20;;;;;;;16.10;4.43;;;22.80;54.10;;;;;;5093279;28;20027;-55
2021/04/14 07:58:53;;;;;;;21.60;5.78;;;22.80;54.20;;;;;;5089408;28;20089;-57
2021/04/14 08:01:21;;;;;;;13.07;3.58;;;22.80;54.20;;;;;;5095033;28;20024;-57
2021/04/14 08:03:51;;;;;;;16.88;3.45;;;22.80;54.10;;;;;;5077294;28;20027;-57
2021/04/14 08:06:18;;;;;;;14.40;3.45;;;22.70;54.00;;;;;;5077004;28;20119;-56
2021/04/14 08:08:47;;;;;;;13.52;4.07;;;22.70;54.00;;;;;;5095116;28;20043;-54
2021/04/14 08:11:33;;;;;;;15.23;3.47;;;22.70;53.80;;;;;;5095545;28;20024;-54
2021/04/14 08:14:14;;;;;;;16.98;4.43;;;22.60;53.50;;;;;;5086227;28;20031;-55
2021/04/14 08:16:45;;;;;;;18.95;3.83;;;22.60;53.50;;;;;;5087591;28;20031;-55
2021/04/14 08:19:29;;;;;;;12.75;3.50;;;22.60;53.40;;;;;;5094043;28;20024;-55
2021/04/14 08:21:59;;;;;;;16.95;4.03;;;22.50;53.30;;;;;;5070357;28;20370;-55
2021/04/14 08:24:34;;;;;;;10.20;3.65;;;22.50;53.40;;;;;;5094896;28;20044;-55
2021/04/14 08:27:11;;;;;;;15.07;3.40;;;22.50;53.20;;;;;;5094889;28;20450;-55
2021/04/14 08:29:37;;;;;;;14.68;3.88;;;22.50;53.20;;;;;;5094679;28;20078;-55
2021/04/14 08:32:11;;;;;;;11.98;3.22;;;22.50;53.30;;;;;;5093165;28;20040;-56
2021/04/14 08:34:39;;;;;;;14.05;4.10;;;22.50;53.20;;;;;;5094340;28;20035;-54
2021/04/14 08:37:08;;;;;;;18.15;4.60;;;22.50;53.10;;;;;;5093851;28;20111;-55
2021/04/14 08:39:34;;;;;;;12.95;4.13;;;22.40;53.20;;;;;;5094122;28;20054;-54
2021/04/14 08:42:08;;;;;;;96.43;85.95;;;22.40;53.20;;;;;;5076428;28;20036;-55
2021/04/14 08:44:36;;;;;;;28.90;14.02;;;22.40;53.20;;;;;;5094039;28;20024;-57
2021/04/14 08:47:29;;;;;;;19.27;6.22;;;22.40;53.60;;;;;;5093779;28;20024;-54
2021/04/14 08:50:27;;;;;;;16.10;3.72;;;22.40;52.80;;;;;;5079941;28;20040;-55
2021/04/14 08:52:57;;;;;;;14.15;3.97;;;22.40;52.80;;;;;;5074078;28;20028;-55
2021/04/14 08:55:26;;;;;;;55.65;44.80;;;22.40;52.80;;;;;;5095650;28;20031;-56
2021/04/14 08:57:55;;;;;;;101.10;84.93;;;22.40;52.80;;;;;;5092209;28;20016;-55
2021/04/14 09:00:22;;;;;;;51.53;44.63;;;22.40;52.70;;;;;;5092588;28;20048;-61
2021/04/14 09:02:52;;;;;;;52.53;40.35;;;22.40;52.60;;;;;;5092471;28;20038;-68
2021/04/14 09:05:20;;;;;;;40.40;29.73;;;22.40;52.60;;;;;;5092637;28;20036;-68
2021/04/14 09:07:48;;;;;;;35.85;24.77;;;22.40;52.70;;;;;;5094094;28;20031;-67
2021/04/14 09:10:37;;;;;;;25.55;18.08;;;22.40;52.70;;;;;;5097986;28;20085;-67
2021/04/14 09:13:09;;;;;;;30.17;17.17;;;22.50;52.90;;;;;;5075183;28;20053;-67
2021/04/14 09:15:52;;;;;;;18.77;13.55;;;22.50;52.70;;;;;;5092674;28;20030;-68
2021/04/14 09:18:32;;;;;;;27.75;13.30;;;22.60;52.70;;;;;;5093882;28;20030;-65
2021/04/14 09:21:18;;;;;;;15.10;8.35;;;22.60;52.70;;;;;;5074170;28;20020;-66
2021/04/14 09:23:58;;;;;;;17.88;8.35;;;22.60;52.70;;;;;;5092565;28;20131;-70
2021/04/14 09:26:52;;;;;;;20.40;8.75;;;22.60;52.50;;;;;;5081750;28;20040;-70
2021/04/14 09:29:49;;;;;;;15.02;6.00;;;22.70;52.60;;;;;;5092103;28;20040;-64
2021/04/14 09:32:16;;;;;;;17.15;5.47;;;22.70;52.30;;;;;;5091837;28;20128;-69
2021/04/14 09:34:50;;;;;;;16.75;5.10;;;22.70;52.00;;;;;;5075274;28;20032;-63
2021/04/14 09:37:17;;;;;;;19.13;4.97;;;22.70;51.80;;;;;;5037585;28;20020;-68
2021/04/14 09:39:53;;;;;;;16.17;5.60;;;22.80;52.00;;;;;;5083504;28;20036;-66
2021/04/14 09:42:25;;;;;;;17.50;4.50;;;22.70;51.80;;;;;;5050800;28;20024;-59
2021/04/14 09:44:56;;;;;;;12.40;5.15;;;22.80;51.80;;;;;;5079794;28;20059;-59
2021/04/14 09:47:28;;;;;;;16.10;5.30;;;22.80;51.70;;;;;;5074380;28;20032;-59
2021/04/14 09:49:59;;;;;;;10.32;4.28;;;22.80;51.60;;;;;;5076981;28;20383;-66
2021/04/14 09:52:42;;;;;;;20.13;4.25;;;22.80;51.50;;;;;;5075381;28;20028;-65
2021/04/14 09:55:14;;;;;;;13.45;3.88;;;22.80;51.40;;;;;;5079220;28;20070;-57
2021/04/14 09:57:45;;;;;;;13.93;3.70;;;22.90;51.50;;;;;;5052231;28;20024;-57
2021/04/14 10:00:16;;;;;;;16.45;2.97;;;22.90;51.30;;;;;;5068571;28;20028;-57
2021/04/14 10:02:45;;;;;;;14.20;3.85;;;22.90;51.20;;;;;;5049988;28;20048;-56
2021/04/14 10:05:11;;;;;;;15.13;3.40;;;22.90;51.30;;;;;;5087331;28;20111;-60
2021/04/14 10:07:41;;;;;;;13.82;3.85;;;23.00;51.30;;;;;;5081366;28;20069;-62
2021/04/14 10:10:23;;;;;;;10.07;3.67;;;23.00;51.20;;;;;;5079172;28;20047;-58
2021/04/14 10:12:49;;;;;;;13.43;3.22;;;23.00;51.30;;;;;;5059906;28;20033;-57
2021/04/14 10:15:16;;;;;;;13.38;3.47;;;23.10;51.20;;;;;;5075282;28;20082;-57
2021/04/14 10:17:44;;;;;;;11.02;3.45;;;23.10;51.20;;;;;;5053088;28;20031;-56
2021/04/14 10:20:25;;;;;;;12.35;3.33;;;23.10;51.00;;;;;;5070195;28;20079;-57
2021/04/14 10:22:52;;;;;;;12.20;3.45;;;23.10;50.90;;;;;;5070889;28;20469;-58
2021/04/14 10:25:31;;;;;;;9.63;3.50;;;23.10;50.80;;;;;;5074566;28;20070;-60
2021/04/14 10:28:08;;;;;;;10.75;4.07;;;23.10;50.70;;;;;;5073375;28;20524;-59
2021/04/14 10:30:40;;;;;;;8.40;2.80;;;23.10;50.70;;;;;;5072204;28;20050;-57
2021/04/14 10:33:18;;;;;;;12.57;4.80;;;23.10;50.70;;;;;;5085689;28;20056;-56
2021/04/14 10:35:45;;;;;;;15.85;6.00;;;23.10;50.60;;;;;;5090383;28;20390;-58
2021/04/14 10:38:11;;;;;;;17.42;7.50;;;23.20;50.90;;;;;;5090255;28;20493;-60
2021/04/14 10:40:44;;;;;;;16.48;7.32;;;23.20;51.10;;;;;;5090855;28;20485;-58
2021/04/14 10:43:20;;;;;;;19.10;8.25;;;23.20;50.90;;;;;;5090049;28;20036;-60
2021/04/14 10:46:02;;;;;;;14.30;8.23;;;23.30;51.10;;;;;;5090868;28;20059;-63
2021/04/14 10:48:28;;;;;;;15.50;5.97;;;23.30;51.10;;;;;;5091691;28;20500;-60
2021/04/14 10:51:29;;;;;;;13.88;7.00;;;23.30;51.10;;;;;;5074176;28;20088;-61
2021/04/14 10:53:58;;;;;;;19.92;6.70;;;23.30;51.10;;;;;;5032972;28;20083;-60
2021/04/14 10:56:27;;;;;;;13.43;6.25;;;23.40;51.00;;;;;;5027166;28;20037;-58
2021/04/14 10:58:55;;;;;;;15.23;7.20;;;23.40;50.80;;;;;;5038873;28;20044;-62
2021/04/14 11:01:41;;;;;;;13.38;7.90;;;23.50;51.50;;;;;;5037831;28;20037;-58
2021/04/14 11:04:16;;;;;;;20.15;12.50;;;23.50;50.70;;;;;;5033904;28;20188;-59
2021/04/14 11:06:48;;;;;;;22.42;15.27;;;23.50;50.80;;;;;;5037315;28;20147;-60
2021/04/14 11:09:16;;;;;;;26.50;17.70;;;23.60;50.80;;;;;;5032478;28;20137;-65
2021/04/14 11:11:44;;;;;;;23.13;16.77;;;23.70;50.90;;;;;;5015644;28;20048;-65
2021/04/14 11:14:12;;;;;;;22.10;13.60;;;23.70;50.70;;;;;;5035747;28;20080;-62
2021/04/14 11:16:40;;;;;;;18.63;11.48;;;23.80;50.50;;;;;;5044070;28;20345;-62
2021/04/14 11:19:21;;;;;;;22.95;11.32;;;23.80;50.10;;;;;;5034358;28;20029;-62
2021/04/14 11:22:07;;;;;;;20.85;8.77;;;23.90;49.80;;;;;;5034708;28;20125;-60
2021/04/14 11:24:48;;;;;;;16.50;5.28;;;24.00;48.90;;;;;;5024374;28;20048;-62
2021/04/14 11:27:34;;;;;;;12.63;6.22;;;24.00;48.20;;;;;;5047095;28;20156;-61
2021/04/14 11:30:14;;;;;;;12.20;6.63;;;24.10;48.50;;;;;;5063389;28;20102;-61
2021/04/14 11:32:40;;;;;;;14.18;6.95;;;24.10;47.90;;;;;;5098136;28;20388;-61
2021/04/14 11:35:11;;;;;;;14.82;7.30;;;24.10;48.10;;;;;;5093104;28;20016;-62
2021/04/14 11:37:36;;;;;;;13.38;6.35;;;24.10;47.30;;;;;;5082855;28;20481;-62
2021/04/14 11:40:06;;;;;;;11.65;6.10;;;24.20;47.70;;;;;;5056498;28;20022;-61
2021/04/14 11:42:55;;;;;;;22.60;7.72;;;24.20;47.70;;;;;;5081963;28;20111;-60
2021/04/14 11:45:37;;;;;;;13.80;6.20;;;24.20;47.90;;;;;;5089891;28;20024;-60
2021/04/14 11:48:28;;;;;;;17.70;7.00;;;24.20;47.70;;;;;;5090565;28;20338;-60
2021/04/14 11:50:54;;;;;;;15.35;8.57;;;24.20;47.80;;;;;;5058298;28;20037;-59
2021/04/14 11:53:27;;;;;;;12.00;6.70;;;24.30;48.00;;;;;;5044215;28;20367;-58
2021/04/14 11:55:54;;;;;;;18.33;8.00;;;24.20;47.80;;;;;;5086878;28;20028;-60
2021/04/14 11:58:38;;;;;;;19.48;9.35;;;24.20;48.00;;;;;;5085787;28;20496;-58
2021/04/14 12:01:06;;;;;;;16.25;8.75;;;24.20;47.90;;;;;;5054885;28;20025;-59
2021/04/14 12:03:37;;;;;;;15.05;7.97;;;24.20;48.00;;;;;;5070273;28;20028;-59
2021/04/14 12:06:04;;;;;;;17.38;8.60;;;24.10;48.00;;;;;;5074768;28;20037;-58
2021/04/14 12:08:30;;;;;;;21.90;7.38;;;24.10;48.20;;;;;;5088294;28;20043;-59
2021/04/14 12:10:57;;;;;;;24.00;7.80;;;24.10;48.20;;;;;;5094852;28;20027;-58
2021/04/14 12:13:24;;;;;;;21.27;6.93;;;24.10;48.30;;;;;;5081866;28;20032;-59
2021/04/14 12:15:50;;;;;;;23.80;7.22;;;24.10;48.30;;;;;;5074681;28;20044;-58
2021/04/14 12:18:17;;;;;;;21.90;7.30;;;24.10;48.30;;;;;;5074541;28;20024;-59
2021/04/14 12:20:44;;;;;;;24.17;7.88;;;24.10;48.40;;;;;;5072005;28;20054;-59
2021/04/14 12:23:10;;;;;;;12.88;7.38;;;24.00;48.40;;;;;;5076015;28;20435;-59
2021/04/14 12:25:37;;;;;;;14.60;6.80;;;24.00;48.50;;;;;;5074396;28;20030;-59
2021/04/14 12:28:03;;;;;;;12.68;6.25;;;24.00;48.60;;;;;;5071997;28;20286;-60
2021/04/14 12:30:29;;;;;;;14.15;6.07;;;24.00;48.60;;;;;;5089833;28;20032;-60
2021/04/14 12:32:55;;;;;;;14.65;6.15;;;24.00;48.70;;;;;;5055798;28;20044;-66
2021/04/14 12:35:23;;;;;;;21.10;6.20;;;24.00;48.80;;;;;;5072858;28;20033;-67
2021/04/14 12:37:50;;;;;;;18.45;5.32;;;24.00;48.90;;;;;;5071222;28;20020;-68
2021/04/14 12:40:16;;;;;;;14.55;5.63;;;24.00;49.10;;;;;;5054579;28;20028;-67
2021/04/14 12:42:42;;;;;;;14.00;4.15;;;24.00;49.10;;;;;;5073038;28;20032;-66
2021/04/14 12:45:34;;;;;;;15.05;5.07;;;23.90;49.00;;;;;;5054781;28;20090;-66
2021/04/14 12:48:01;;;;;;;14.65;3.92;;;23.90;49.00;;;;;;5063172;28;20025;-66
2021/04/14 12:50:27;;;;;;;16.65;5.22;;;23.90;49.00;;;;;;5071019;28;20031;-67
2021/04/14 12:52:57;;;;;;;9.77;4.05;;;23.80;49.10;;;;;;5064508;28;20044;-67